createdAt,value
2019-04-14T00:05:14.708Z,41.40
2019-04-14T00:11:17.600Z,41.40
2019-04-14T00:17:21.530Z,41.40
2019-04-14T00:23:24.449Z,42.00
2019-04-14T00:29:28.440Z,41.40
2019-04-14T00:35:32.070Z,41.40
2019-04-14T00:41:43.843Z,42.00
2019-04-14T00:47:52.027Z,41.20
2019-04-14T00:53:44.612Z,41.30
2019-04-14T00:59:48.639Z,41.40
2019-04-14T01:05:52.591Z,41.30
2019-04-14T01:11:55.529Z,41.30
2019-04-14T01:17:59.211Z,41.40
2019-04-14T01:24:03.202Z,41.40
2019-04-14T01:30:06.721Z,41.60
2019-04-14T01:36:10.490Z,41.60
2019-04-14T01:42:13.807Z,41.60
2019-04-14T01:48:17.133Z,41.60
2019-04-14T01:54:19.959Z,41.60
2019-04-14T02:00:22.885Z,41.50
2019-04-14T02:06:26.606Z,41.60
2019-04-14T02:12:30.202Z,41.50
2019-04-14T02:18:33.980Z,41.60
2019-04-14T02:24:37.497Z,41.50
2019-04-14T02:30:49.240Z,41.50
2019-04-14T02:37:10.616Z,41.40
2019-04-14T02:49:20.945Z,41.40
2019-04-14T02:55:21.606Z,41.30
2019-04-14T03:01:35.382Z,41.30
2019-04-14T03:13:48.327Z,41.30
2019-04-14T03:19:43.935Z,41.40
2019-04-14T03:25:43.056Z,41.50
2019-04-14T03:43:54.583Z,41.60
2019-04-14T03:55:55.318Z,41.70
2019-04-14T04:01:54.802Z,41.70
2019-04-14T04:07:58.091Z,41.80
2019-04-14T04:14:00.940Z,41.80
2019-04-14T04:20:06.655Z,41.90
2019-04-14T04:26:10.438Z,41.80
2019-04-14T04:32:14.242Z,42.00
2019-04-14T04:38:18.099Z,41.90
2019-04-14T04:44:20.963Z,41.80
2019-04-14T04:50:23.931Z,41.80
2019-04-14T04:56:27.558Z,41.60
2019-04-14T05:02:30.928Z,41.80
2019-04-14T05:08:34.832Z,41.80
2019-04-14T05:14:37.652Z,41.70
2019-04-14T05:20:40.395Z,41.70
2019-04-14T05:26:43.786Z,41.70
2019-04-14T05:32:47.727Z,41.70
2019-04-14T05:38:51.750Z,41.80
2019-04-14T05:44:55.723Z,41.80
2019-04-14T05:50:59.769Z,41.80
2019-04-14T05:57:02.673Z,41.80
2019-04-14T06:03:05.991Z,41.80
2019-04-14T06:09:08.862Z,41.80
2019-04-14T06:15:11.880Z,41.70
2019-04-14T06:21:14.617Z,41.70
2019-04-14T06:27:17.434Z,41.70
2019-04-14T06:33:20.159Z,41.60
2019-04-14T06:39:23.216Z,41.60
2019-04-14T06:45:25.981Z,41.70
2019-04-14T06:51:28.705Z,41.60
2019-04-14T06:57:31.440Z,43.60
2019-04-14T07:03:34.171Z,42.80
2019-04-14T07:09:36.901Z,43.70
2019-04-14T07:15:39.631Z,43.80
2019-04-14T07:21:42.362Z,44.00
2019-04-14T07:27:45.087Z,44.30
2019-04-14T07:33:47.834Z,44.20
2019-04-14T07:39:50.620Z,44.10
2019-04-14T07:45:53.375Z,44.60
2019-04-14T07:51:56.097Z,45.00
2019-04-14T07:57:58.836Z,44.40
2019-04-14T08:04:01.575Z,43.50
2019-04-14T08:10:06.773Z,43.90
2019-04-14T08:16:09.500Z,44.50
2019-04-14T08:22:12.404Z,44.40
2019-04-14T08:28:15.135Z,44.20
2019-04-14T08:34:17.875Z,44.60
2019-04-14T08:40:20.613Z,44.00
2019-04-14T08:46:23.368Z,43.50
2019-04-14T08:52:26.114Z,44.70
2019-04-14T08:58:28.831Z,44.10
2019-04-14T09:04:31.549Z,44.20
2019-04-14T09:10:34.287Z,43.40
2019-04-14T09:16:37.032Z,43.10
2019-04-14T09:22:39.769Z,42.60
2019-04-14T09:28:43.792Z,42.20
2019-04-14T09:34:46.532Z,42.20
2019-04-14T09:40:49.259Z,42.10
2019-04-14T09:46:52.355Z,41.90
2019-04-14T09:52:55.089Z,41.70
2019-04-14T09:58:57.846Z,41.60
2019-04-14T10:05:00.644Z,41.50
2019-04-14T10:11:03.456Z,41.40
2019-04-14T10:17:06.183Z,41.30
2019-04-14T10:23:08.996Z,41.30
2019-04-14T10:29:11.724Z,41.20
2019-04-14T10:35:14.715Z,41.30
2019-04-14T10:41:17.502Z,41.10
2019-04-14T10:47:20.240Z,41.00
2019-04-14T10:53:22.975Z,41.10
2019-04-14T10:59:25.849Z,41.00
2019-04-14T11:05:28.634Z,41.10
2019-04-14T11:11:31.653Z,42.80
2019-04-14T11:17:34.392Z,43.60
2019-04-14T11:23:37.132Z,44.40
2019-04-14T11:29:40.176Z,44.10
2019-04-14T11:35:42.924Z,44.40
2019-04-14T11:41:45.992Z,44.50
2019-04-14T11:47:48.719Z,44.40
2019-04-14T11:53:51.497Z,44.60
2019-04-14T11:59:54.520Z,44.70
2019-04-14T12:05:57.288Z,44.70
2019-04-14T12:12:00.085Z,44.70
2019-04-14T12:18:03.089Z,44.80
2019-04-14T12:24:05.823Z,44.70
2019-04-14T12:30:10.939Z,43.60
2019-04-14T12:36:13.929Z,43.40
2019-04-14T12:42:16.665Z,43.50
2019-04-14T12:48:19.565Z,43.30
2019-04-14T12:54:22.311Z,43.20
2019-04-14T13:00:25.046Z,43.00
2019-04-14T13:06:27.780Z,43.00
2019-04-14T13:12:30.849Z,42.90
2019-04-14T13:18:33.579Z,42.80
2019-04-14T13:24:36.412Z,42.80
2019-04-14T13:30:39.147Z,42.80
2019-04-14T13:36:41.879Z,42.80
2019-04-14T13:42:44.607Z,42.70
2019-04-14T13:48:47.349Z,42.80
2019-04-14T13:54:50.085Z,42.80
2019-04-14T14:00:52.834Z,42.80
2019-04-14T14:06:55.621Z,42.90
2019-04-14T14:12:58.356Z,42.90
2019-04-14T14:19:01.084Z,43.00
2019-04-14T14:25:03.983Z,43.00
2019-04-14T14:31:06.712Z,43.00
2019-04-14T14:37:09.501Z,43.00
2019-04-14T14:43:12.272Z,43.00
2019-04-14T14:49:15.012Z,43.00
2019-04-14T14:55:18.051Z,42.90
2019-04-14T15:01:20.779Z,42.90
2019-04-14T15:07:23.501Z,43.20
2019-04-14T15:13:26.236Z,43.40
2019-04-14T15:19:28.964Z,43.50
2019-04-14T15:25:31.693Z,43.80
2019-04-14T15:31:34.436Z,43.70
2019-04-14T15:37:37.169Z,43.60
2019-04-14T15:43:39.904Z,45.80
2019-04-14T15:49:42.648Z,48.00
2019-04-14T15:55:45.400Z,46.40
2019-04-14T16:01:48.132Z,47.10
2019-04-14T16:07:51.115Z,47.30
2019-04-14T16:13:53.848Z,47.00
2019-04-14T16:19:56.593Z,47.00
2019-04-14T16:25:59.635Z,47.40
2019-04-14T16:32:02.376Z,46.40
2019-04-14T16:38:05.123Z,46.00
2019-04-14T16:44:07.867Z,46.40
2019-04-14T16:50:10.613Z,47.40
2019-04-14T16:56:13.428Z,47.10
2019-04-14T17:02:16.174Z,47.10
2019-04-14T17:08:18.913Z,47.10
2019-04-14T17:14:21.737Z,46.80
2019-04-14T17:20:24.469Z,47.70
2019-04-14T17:26:27.497Z,47.60
2019-04-14T17:32:30.344Z,47.30
2019-04-14T17:38:33.085Z,47.00
2019-04-14T17:44:35.829Z,46.70
2019-04-14T17:50:40.828Z,46.10
2019-04-14T17:56:43.108Z,45.80
2019-04-14T18:02:45.904Z,45.90
2019-04-14T18:08:48.647Z,46.50
2019-04-14T18:14:51.392Z,45.80
2019-04-14T18:20:54.127Z,45.50
2019-04-14T18:26:56.877Z,45.20
2019-04-14T18:32:59.651Z,45.00
2019-04-14T18:39:02.913Z,44.90
2019-04-14T18:45:05.660Z,44.90
2019-04-14T18:51:08.406Z,45.50
2019-04-14T18:57:11.188Z,44.80
2019-04-14T19:03:13.913Z,44.80
2019-04-14T19:09:16.654Z,44.70
2019-04-14T19:15:19.651Z,44.70
2019-04-14T19:21:22.387Z,44.70
2019-04-14T19:27:25.121Z,44.60
2019-04-14T19:33:27.852Z,44.50
2019-04-14T19:39:30.607Z,44.50
2019-04-14T19:45:33.416Z,44.50
2019-04-14T19:51:36.240Z,44.50
2019-04-14T19:57:38.963Z,44.50
2019-04-14T20:03:41.739Z,44.70
2019-04-14T20:09:44.465Z,44.60
2019-04-14T20:15:47.192Z,44.50
2019-04-14T20:21:49.922Z,44.60
2019-04-14T20:27:52.689Z,44.60
2019-04-14T20:33:55.451Z,44.50
2019-04-14T20:40:00.065Z,44.50
2019-04-14T20:46:02.807Z,44.50
2019-04-14T20:52:05.558Z,44.50
2019-04-14T20:58:08.295Z,44.60
2019-04-14T21:04:11.019Z,44.60
2019-04-14T21:10:13.791Z,44.60
2019-04-14T21:16:16.800Z,44.60
2019-04-14T21:22:19.548Z,44.60
2019-04-14T21:28:22.727Z,44.60
2019-04-14T21:34:25.462Z,44.50
2019-04-14T21:40:28.183Z,44.50
2019-04-14T21:46:30.917Z,44.40
2019-04-14T21:52:33.649Z,44.50
2019-04-14T21:58:36.492Z,44.40
2019-04-14T22:04:39.221Z,44.40
2019-04-14T22:10:41.969Z,44.40
2019-04-14T22:16:44.802Z,44.40
2019-04-14T22:22:47.540Z,44.40
2019-04-14T22:28:50.270Z,44.40
2019-04-14T22:34:53.000Z,44.50
2019-04-14T22:40:55.738Z,44.50
2019-04-14T22:46:58.454Z,44.50
2019-04-14T22:53:01.173Z,44.50
2019-04-14T22:59:03.937Z,44.60
2019-04-14T23:05:07.041Z,44.50
2019-04-14T23:11:10.246Z,44.50
2019-04-14T23:17:12.963Z,44.50
2019-04-14T23:23:15.701Z,44.40
2019-04-14T23:29:18.480Z,44.40
2019-04-14T23:35:21.567Z,44.50
2019-04-14T23:41:24.296Z,44.40
2019-04-14T23:47:27.020Z,44.30
2019-04-14T23:53:29.739Z,44.40
2019-04-14T23:59:32.474Z,44.40
